Gosnold, Massachusetts
Current Conditions -  °F | °C
As of 2:53 AM on Thursday 29 Jan 2015 (Local Time) from KMVY Reporting Station
Overcast Overcast  
Wind Chill: 10°   Ceiling: 2700
Heat Index: 21°   Visibility: 10mi
Dew Point: 10°   Wind: 10mph
Humidity: 63%   Direction: 340°NNW
Pressure: 30.25"   Gusts: NA
Location:  41.4796°N, 70.7571°W
Report Text: KMVY 290753Z AUTO 34009KT 10SM OVC027 M06/M12 A3025 RMK AO2 SLP244 T10611122
Loading
Personal Weather Stations






























Interactive Weather Map New forecast layout! Learn more

10-Day Weather Forecast

Advertisements
Track Severe Weather on mobile